Time;durP1;ratioP1;P1;durP2;ratioP2;P2;SDS_P1;SDS_P2;PMS_P1;PMS_P2;Temp;Humidity;BMP_temperature;BMP_pressure;BME280_temperature;BME280_humidity;BME280_pressure;Samples;Min_cycle;Max_cycle;Signal;HPM_P1;HPM_P2
2022/05/07 00:00:55;;;;;;;2.83;1.27;;;14.50;99.90;;;;;;5048784;28;20053;-52
2022/05/07 00:03:22;;;;;;;6.43;1.50;;;14.50;99.90;;;;;;5049660;28;20057;-58
2022/05/07 00:05:49;;;;;;;4.78;2.22;;;14.50;99.90;;;;;;5049448;28;20045;-57
2022/05/07 00:08:15;;;;;;;3.33;1.65;;;14.60;99.90;;;;;;5050511;28;20136;-57
2022/05/07 00:10:43;;;;;;;5.25;1.80;;;14.50;99.90;;;;;;5050253;28;20128;-56
2022/05/07 00:13:10;;;;;;;4.85;1.48;;;14.40;99.90;;;;;;5049366;28;20064;-55
2022/05/07 00:15:37;;;;;;;9.93;2.15;;;14.40;99.90;;;;;;5048672;28;20045;-56
2022/05/07 00:18:05;;;;;;;7.22;1.65;;;14.30;99.90;;;;;;5048543;28;20492;-55
2022/05/07 00:20:33;;;;;;;3.90;2.25;;;14.30;99.90;;;;;;5048894;28;20051;-56
2022/05/07 00:23:01;;;;;;;8.00;2.08;;;14.30;99.90;;;;;;5048411;28;20120;-54
2022/05/07 00:25:28;;;;;;;9.77;2.33;;;14.30;99.90;;;;;;5047852;28;20081;-55
2022/05/07 00:27:55;;;;;;;4.38;2.13;;;14.20;99.90;;;;;;5048753;28;20135;-56
2022/05/07 00:30:21;;;;;;;3.30;1.98;;;14.10;99.90;;;;;;5050059;28;20076;-54
2022/05/07 00:32:48;;;;;;;4.78;2.10;;;13.90;99.90;;;;;;5032347;28;20099;-53
2022/05/07 00:35:16;;;;;;;3.90;2.13;;;13.80;99.90;;;;;;5049988;28;20041;-56
2022/05/07 00:37:43;;;;;;;2.63;1.85;;;13.80;99.90;;;;;;5050194;28;20107;-56
2022/05/07 00:40:10;;;;;;;3.58;1.75;;;13.80;99.90;;;;;;5049670;28;20053;-56
2022/05/07 00:42:38;;;;;;;4.32;1.63;;;13.70;99.90;;;;;;5049839;28;20442;-55
2022/05/07 00:45:05;;;;;;;2.50;1.63;;;13.70;99.90;;;;;;5049234;28;20049;-55
2022/05/07 00:47:32;;;;;;;4.63;1.80;;;13.70;99.90;;;;;;5049817;28;20045;-56
2022/05/07 00:51:33;;;;;;;3.47;2.10;;;13.60;99.90;;;;;;5048402;28;20127;-56
2022/05/07 00:52:46;;;;;;;4.63;2.13;;;13.60;99.90;;;;;;5048392;28;20348;-57
2022/05/07 00:55:14;;;;;;;4.35;1.92;;;13.50;99.90;;;;;;5047374;28;20075;-57
2022/05/07 00:57:40;;;;;;;2.85;1.63;;;13.50;99.90;;;;;;5049160;28;20136;-56
2022/05/07 01:00:08;;;;;;;3.38;1.30;;;13.50;99.90;;;;;;5049464;28;20131;-56
2022/05/07 01:02:39;;;;;;;4.05;1.60;;;13.50;99.90;;;;;;5049109;28;20540;-51
2022/05/07 01:05:07;;;;;;;4.50;1.50;;;13.50;99.90;;;;;;5049084;28;20052;-56
2022/05/07 01:07:34;;;;;;;1.55;1.33;;;13.50;99.90;;;;;;5047995;28;20198;-57
2022/05/07 01:10:03;;;;;;;5.25;2.35;;;13.40;99.90;;;;;;5049177;28;20527;-57
2022/05/07 01:12:29;;;;;;;1.60;1.20;;;13.50;99.90;;;;;;5046639;28;20080;-56
2022/05/07 01:14:57;;;;;;;3.45;1.75;;;13.40;99.90;;;;;;5027941;28;20045;-54
2022/05/07 01:17:24;;;;;;;9.40;2.05;;;13.40;99.90;;;;;;5048453;28;20132;-56
2022/05/07 01:19:52;;;;;;;3.05;1.52;;;13.50;99.90;;;;;;5047425;28;20071;-56
2022/05/07 01:22:20;;;;;;;3.70;1.58;;;13.40;99.90;;;;;;5047973;28;20099;-57
2022/05/07 01:24:46;;;;;;;3.00;1.63;;;13.40;99.90;;;;;;5048655;28;20128;-55
2022/05/07 01:27:13;;;;;;;2.10;1.40;;;13.40;99.90;;;;;;5048073;28;20073;-54
2022/05/07 01:29:40;;;;;;;3.28;1.67;;;13.40;99.90;;;;;;5048946;28;20052;-55
2022/05/07 01:32:07;;;;;;;3.85;1.52;;;13.40;99.90;;;;;;5047365;28;20068;-55
2022/05/07 01:34:33;;;;;;;3.00;1.55;;;13.40;99.90;;;;;;5048982;28;20049;-55
2022/05/07 01:37:00;;;;;;;8.02;1.70;;;13.40;99.90;;;;;;5048801;28;20049;-56
2022/05/07 01:39:27;;;;;;;2.67;1.30;;;13.40;99.90;;;;;;5048959;28;20195;-56
2022/05/07 01:41:54;;;;;;;8.10;1.70;;;13.50;99.90;;;;;;5048441;28;20152;-55
2022/05/07 01:44:20;;;;;;;2.00;1.40;;;13.40;99.90;;;;;;5048436;28;20140;-55
2022/05/07 01:49:33;;;;;;;4.45;1.77;;;13.40;99.90;;;;;;5048676;28;20069;-56
2022/05/07 01:51:59;;;;;;;6.25;1.58;;;13.40;99.90;;;;;;5048596;28;20068;-55
2022/05/07 01:54:26;;;;;;;4.68;1.55;;;13.40;99.90;;;;;;5048534;28;20107;-54
2022/05/07 01:56:53;;;;;;;4.55;2.08;;;13.40;99.90;;;;;;5046817;28;20460;-54
2022/05/07 01:59:20;;;;;;;6.68;1.55;;;13.40;99.90;;;;;;4696159;28;10000101;-55
2022/05/07 02:01:47;;;;;;;2.17;1.45;;;13.30;99.90;;;;;;5046877;28;20510;-53
2022/05/07 02:04:14;;;;;;;3.13;1.60;;;13.30;99.90;;;;;;5048489;28;20115;-54
2022/05/07 02:06:40;;;;;;;5.68;1.63;;;13.30;99.90;;;;;;5047953;28;20132;-54
2022/05/07 02:09:07;;;;;;;6.30;1.65;;;13.40;99.90;;;;;;5047184;28;20132;-56
2022/05/07 02:11:34;;;;;;;4.47;1.45;;;13.40;99.90;;;;;;5047833;28;20503;-62
2022/05/07 02:14:01;;;;;;;3.38;1.50;;;13.50;99.90;;;;;;5048000;28;20124;-55
2022/05/07 02:16:27;;;;;;;2.25;1.35;;;13.50;99.90;;;;;;5047576;28;20597;-57
2022/05/07 02:18:54;;;;;;;2.38;1.80;;;13.50;99.90;;;;;;5048235;28;20190;-57
2022/05/07 02:21:21;;;;;;;4.07;1.63;;;13.50;99.90;;;;;;5048377;28;20136;-55
2022/05/07 02:23:47;;;;;;;4.75;1.45;;;13.50;99.90;;;;;;5047476;28;20045;-55
2022/05/07 02:26:14;;;;;;;3.08;1.38;;;13.60;99.90;;;;;;5047612;28;20127;-55
2022/05/07 02:28:41;;;;;;;5.72;1.67;;;13.60;99.90;;;;;;5047496;28;20531;-56
2022/05/07 02:31:08;;;;;;;2.25;1.70;;;13.60;99.90;;;;;;5048328;28;20132;-55
2022/05/07 02:33:34;;;;;;;3.92;2.13;;;13.60;99.90;;;;;;5047702;28;20067;-55
2022/05/07 02:36:01;;;;;;;5.25;1.90;;;13.60;99.90;;;;;;5048014;28;20136;-57
2022/05/07 02:38:28;;;;;;;3.15;1.63;;;13.60;99.90;;;;;;5047551;28;20570;-56
2022/05/07 02:43:40;;;;;;;3.55;1.92;;;13.70;99.90;;;;;;5047443;28;20496;-56
2022/05/07 02:46:07;;;;;;;4.43;1.60;;;13.70;99.90;;;;;;5047616;28;20128;-55
2022/05/07 02:48:35;;;;;;;2.70;1.70;;;13.70;99.90;;;;;;5047422;28;20124;-55
2022/05/07 02:51:02;;;;;;;2.83;1.98;;;13.70;99.90;;;;;;5047700;28;20059;-56
2022/05/07 02:53:29;;;;;;;5.00;1.90;;;13.80;99.90;;;;;;5047233;28;20127;-56
2022/05/07 02:55:56;;;;;;;3.05;1.90;;;13.70;99.90;;;;;;5047161;28;20115;-55
2022/05/07 02:58:23;;;;;;;3.15;2.10;;;13.80;99.90;;;;;;5047384;28;20359;-58
2022/05/07 03:00:49;;;;;;;4.28;1.90;;;13.80;99.90;;;;;;5047225;28;20449;-56
2022/05/07 03:03:16;;;;;;;3.63;2.38;;;13.80;99.90;;;;;;5046617;28;20048;-55
2022/05/07 03:05:49;;;;;;;4.90;2.17;;;13.80;99.90;;;;;;5047608;28;20049;-56
2022/05/07 03:08:15;;;;;;;2.72;2.08;;;13.80;99.90;;;;;;5051758;28;20084;-56
2022/05/07 03:10:42;;;;;;;4.13;1.88;;;13.90;99.90;;;;;;5054115;28;20127;-55
2022/05/07 03:13:09;;;;;;;3.25;1.92;;;13.90;99.90;;;;;;5053908;28;20140;-57
2022/05/07 03:15:35;;;;;;;4.97;2.25;;;13.90;99.90;;;;;;5053620;28;20503;-57
2022/05/07 03:18:02;;;;;;;6.07;2.30;;;13.90;99.90;;;;;;5053910;28;20049;-52
2022/05/07 03:20:29;;;;;;;3.13;2.20;;;13.80;99.90;;;;;;5053391;28;20059;-56
2022/05/07 03:22:56;;;;;;;3.17;1.52;;;13.90;99.90;;;;;;5053693;28;20124;-56
2022/05/07 03:25:23;;;;;;;3.75;1.70;;;14.00;99.90;;;;;;5053351;28;20131;-56
2022/05/07 03:27:49;;;;;;;4.75;2.00;;;13.90;99.90;;;;;;5054014;28;20128;-54
2022/05/07 03:30:16;;;;;;;4.57;2.00;;;13.90;99.90;;;;;;5053904;28;20048;-56
2022/05/07 03:32:43;;;;;;;4.60;2.38;;;13.90;99.90;;;;;;5053715;28;20514;-55
2022/05/07 03:35:10;;;;;;;3.83;1.85;;;13.90;99.90;;;;;;5053488;28;20132;-55
2022/05/07 03:37:36;;;;;;;4.55;2.17;;;13.90;99.90;;;;;;5053892;28;20128;-55
2022/05/07 03:40:03;;;;;;;7.18;2.08;;;13.90;99.90;;;;;;5053592;28;20053;-55
2022/05/07 03:42:33;;;;;;;4.63;2.13;;;13.90;99.90;;;;;;5053595;28;20432;-57
2022/05/07 03:45:01;;;;;;;3.83;2.00;;;13.90;99.90;;;;;;5053426;28;20076;-54
2022/05/07 03:47:27;;;;;;;4.88;2.15;;;13.90;99.90;;;;;;5053931;28;20123;-56
2022/05/07 03:49:54;;;;;;;5.82;2.35;;;13.90;99.90;;;;;;5053623;28;20055;-55
2022/05/07 03:55:07;;;;;;;2.33;1.85;;;13.90;99.90;;;;;;5053608;28;20067;-55
2022/05/07 03:57:34;;;;;;;5.43;2.40;;;13.90;99.90;;;;;;5053597;28;20048;-54
2022/05/07 04:00:01;;;;;;;7.65;2.40;;;13.90;99.90;;;;;;5053413;28;20140;-56
2022/05/07 04:02:32;;;;;;;3.42;1.90;;;13.90;99.90;;;;;;5049828;28;20053;-57
2022/05/07 04:04:59;;;;;;;5.10;2.08;;;13.80;99.90;;;;;;5034078;28;20049;-54
2022/05/07 04:07:25;;;;;;;3.42;2.45;;;13.80;99.90;;;;;;5052218;28;20508;-56
2022/05/07 04:09:54;;;;;;;4.68;2.17;;;13.80;99.90;;;;;;5053834;28;20232;-57
2022/05/07 04:12:22;;;;;;;5.95;2.35;;;13.80;99.90;;;;;;5051869;28;20079;-57
2022/05/07 04:14:49;;;;;;;4.38;2.00;;;13.80;99.90;;;;;;5053345;28;20076;-57
2022/05/07 04:17:15;;;;;;;3.03;1.90;;;13.80;99.90;;;;;;5053355;28;20057;-56
2022/05/07 04:19:42;;;;;;;6.68;2.42;;;13.80;99.90;;;;;;5030694;28;20552;-54
2022/05/07 04:22:09;;;;;;;5.28;2.15;;;13.80;99.90;;;;;;5045174;28;20049;-56
2022/05/07 04:24:36;;;;;;;3.47;2.70;;;13.80;99.90;;;;;;5050092;28;20567;-56
2022/05/07 04:27:03;;;;;;;3.85;2.42;;;13.80;99.90;;;;;;5049600;28;20462;-57
2022/05/07 04:29:33;;;;;;;3.83;2.30;;;13.80;99.90;;;;;;5050258;28;20071;-57
2022/05/07 04:32:00;;;;;;;3.53;2.33;;;13.80;99.90;;;;;;5050111;28;20103;-56
2022/05/07 04:34:28;;;;;;;4.68;2.88;;;13.80;99.90;;;;;;5050451;28;20141;-56
2022/05/07 04:36:55;;;;;;;4.32;2.40;;;13.80;99.90;;;;;;5049826;28;20049;-57
2022/05/07 04:39:22;;;;;;;3.13;2.00;;;13.70;99.90;;;;;;5050109;28;20053;-57
2022/05/07 04:41:49;;;;;;;3.08;2.00;;;13.70;99.90;;;;;;5049450;28;20128;-57
2022/05/07 04:44:15;;;;;;;3.28;2.63;;;13.70;99.90;;;;;;5049899;28;20072;-57
2022/05/07 04:46:42;;;;;;;5.22;2.58;;;13.80;99.90;;;;;;5049808;28;20123;-58
2022/05/07 04:49:09;;;;;;;8.65;3.67;;;13.80;99.90;;;;;;5050009;28;20053;-57
2022/05/07 04:51:36;;;;;;;4.13;3.13;;;13.80;99.90;;;;;;5049830;28;20155;-57
2022/05/07 04:54:07;;;;;;;4.25;2.60;;;13.70;99.90;;;;;;5046342;28;20053;-57
2022/05/07 04:56:34;;;;;;;3.40;2.28;;;13.70;99.90;;;;;;5049247;28;20084;-57
2022/05/07 04:59:01;;;;;;;5.00;2.25;;;13.70;99.90;;;;;;5049152;28;20561;-57
2022/05/07 05:01:28;;;;;;;5.63;2.70;;;13.80;99.90;;;;;;5049634;28;20107;-57
2022/05/07 05:03:54;;;;;;;6.88;2.40;;;13.80;99.90;;;;;;5049458;28;20057;-57
2022/05/07 05:06:21;;;;;;;3.95;2.83;;;13.80;99.90;;;;;;5048404;28;20049;-58
2022/05/07 05:08:48;;;;;;;4.80;2.75;;;13.80;99.90;;;;;;5049095;28;20129;-56
2022/05/07 05:11:15;;;;;;;4.97;3.15;;;13.80;99.90;;;;;;5049256;28;20084;-59
2022/05/07 05:13:41;;;;;;;3.38;2.78;;;13.80;99.90;;;;;;5048963;28;20560;-58
2022/05/07 05:16:08;;;;;;;5.90;2.67;;;13.90;99.90;;;;;;5049359;28;20568;-58
2022/05/07 05:18:35;;;;;;;7.47;2.90;;;13.90;99.90;;;;;;5049144;28;20079;-57
2022/05/07 05:21:02;;;;;;;6.13;2.88;;;13.90;99.90;;;;;;5049182;28;20136;-56
2022/05/07 05:23:29;;;;;;;3.28;2.40;;;13.90;99.90;;;;;;5048939;28;20129;-56
2022/05/07 05:25:56;;;;;;;6.22;3.22;;;13.90;99.90;;;;;;5048882;28;20135;-56
2022/05/07 05:28:23;;;;;;;4.25;3.10;;;13.90;99.90;;;;;;5047785;28;20120;-57
2022/05/07 05:30:56;;;;;;;6.38;3.03;;;13.90;99.90;;;;;;5047791;28;20045;-58
2022/05/07 05:33:23;;;;;;;4.13;2.60;;;13.80;99.90;;;;;;5048755;28;20094;-56
2022/05/07 05:35:49;;;;;;;3.78;2.45;;;13.90;99.90;;;;;;5048964;28;20445;-54
2022/05/07 05:38:16;;;;;;;4.00;2.97;;;13.90;99.90;;;;;;5047017;28;20074;-53
2022/05/07 05:40:43;;;;;;;8.15;3.25;;;13.90;99.90;;;;;;5048493;28;20080;-55
2022/05/07 05:43:10;;;;;;;5.28;3.20;;;14.00;99.90;;;;;;5048525;28;20131;-55
2022/05/07 05:45:37;;;;;;;8.63;4.75;;;14.00;99.90;;;;;;5048084;28;20068;-56
2022/05/07 05:48:05;;;;;;;5.90;3.85;;;14.00;99.90;;;;;;5048630;28;20120;-55
2022/05/07 05:50:31;;;;;;;7.25;3.95;;;14.00;99.90;;;;;;5048142;28;20102;-57
2022/05/07 05:52:58;;;;;;;5.88;4.40;;;13.80;99.90;;;;;;5047292;28;20080;-53
2022/05/07 05:55:25;;;;;;;5.07;4.15;;;13.70;99.90;;;;;;5046673;28;20567;-56
2022/05/07 05:57:52;;;;;;;9.38;3.90;;;13.70;99.90;;;;;;5048711;28;20075;-55
2022/05/07 06:00:19;;;;;;;7.22;5.25;;;13.70;99.90;;;;;;5048194;28;20085;-53
2022/05/07 06:02:45;;;;;;;6.22;4.55;;;13.70;99.90;;;;;;5048304;28;20084;-56
2022/05/07 06:05:13;;;;;;;6.22;4.70;;;13.70;99.90;;;;;;5047995;28;20080;-54
2022/05/07 06:07:39;;;;;;;8.23;5.53;;;13.60;99.90;;;;;;5048406;28;20045;-55
2022/05/07 06:10:06;;;;;;;8.98;5.18;;;13.60;99.90;;;;;;5046759;28;20132;-52
2022/05/07 06:12:34;;;;;;;12.35;5.68;;;13.60;99.90;;;;;;5048057;28;20045;-52
2022/05/07 06:15:01;;;;;;;11.95;5.55;;;13.60;99.90;;;;;;5047847;28;20542;-54
2022/05/07 06:17:27;;;;;;;8.85;5.43;;;13.60;99.90;;;;;;5048227;28;20076;-56
2022/05/07 06:19:54;;;;;;;8.73;5.35;;;13.60;99.90;;;;;;5047635;28;20083;-57
2022/05/07 06:22:22;;;;;;;8.68;5.28;;;13.60;99.90;;;;;;5048067;28;20041;-54
2022/05/07 06:27:34;;;;;;;6.13;4.93;;;13.70;99.90;;;;;;5046295;28;20151;-55
2022/05/07 06:30:01;;;;;;;9.80;5.65;;;13.70;99.90;;;;;;5047253;28;20507;-55
2022/05/07 06:32:36;;;;;;;8.60;5.78;;;13.80;99.90;;;;;;5046378;28;20048;-56
2022/05/07 06:35:03;;;;;;;;;;;13.80;99.90;;;;;;5048016;28;20095;-56
2022/05/07 06:37:31;;;;;;;9.55;5.22;;;13.90;99.90;;;;;;5047353;28;19925;-54
2022/05/07 06:39:58;;;;;;;7.40;5.43;;;13.90;99.90;;;;;;5047682;28;20132;-60
2022/05/07 06:42:25;;;;;;;11.20;5.95;;;13.90;99.90;;;;;;5046227;28;21234;-56
2022/05/07 06:44:52;;;;;;;8.93;4.72;;;13.90;99.90;;;;;;5046238;28;20076;-56
2022/05/07 06:47:19;;;;;;;9.85;5.97;;;13.90;99.90;;;;;;5047323;28;20486;-55
2022/05/07 06:49:46;;;;;;;10.43;5.70;;;13.90;99.90;;;;;;5047571;28;20160;-57
2022/05/07 06:52:13;;;;;;;10.43;6.05;;;14.00;99.90;;;;;;5046274;28;20048;-56
2022/05/07 06:54:40;;;;;;;10.43;5.57;;;14.10;99.90;;;;;;5046207;28;20132;-56
2022/05/07 06:57:07;;;;;;;8.45;6.05;;;14.10;99.90;;;;;;5046477;28;20089;-57
2022/05/07 06:59:34;;;;;;;8.73;5.82;;;14.10;99.90;;;;;;5046381;28;20152;-55
2022/05/07 07:02:01;;;;;;;8.82;5.93;;;14.20;99.90;;;;;;5046681;28;20156;-56
2022/05/07 07:04:28;;;;;;;8.07;5.10;;;14.20;99.90;;;;;;5047244;28;20103;-56
2022/05/07 07:06:55;;;;;;;9.77;5.15;;;14.20;99.90;;;;;;5045554;28;20093;-56
2022/05/07 07:09:21;;;;;;;8.57;5.43;;;14.30;99.90;;;;;;5045238;28;20073;-56
2022/05/07 07:11:48;;;;;;;5.30;3.97;;;14.30;99.90;;;;;;5038979;28;20068;-55
2022/05/07 07:14:15;;;;;;;7.97;5.22;;;14.40;99.90;;;;;;5037058;28;20136;-56
2022/05/07 07:16:42;;;;;;;9.38;4.57;;;14.40;99.90;;;;;;5045177;28;20150;-57
2022/05/07 07:19:09;;;;;;;5.90;4.88;;;14.50;99.90;;;;;;5045275;28;20510;-56
2022/05/07 07:21:36;;;;;;;6.20;4.45;;;14.60;99.90;;;;;;5045083;28;20140;-55
2022/05/07 07:24:03;;;;;;;6.68;4.57;;;14.70;99.90;;;;;;5044966;28;20076;-58
2022/05/07 07:26:30;;;;;;;10.77;4.93;;;14.80;99.90;;;;;;5044756;28;20073;-58
2022/05/07 07:28:57;;;;;;;6.00;4.53;;;14.80;99.90;;;;;;4695107;28;10000084;-59
2022/05/07 07:31:23;;;;;;;9.20;5.00;;;14.90;99.90;;;;;;5041290;28;20075;-57
2022/05/07 07:33:50;;;;;;;6.80;3.72;;;15.00;99.90;;;;;;5042156;28;20144;-59
2022/05/07 07:36:17;;;;;;;6.05;4.65;;;15.10;99.90;;;;;;5043650;28;20140;-56
2022/05/07 07:38:44;;;;;;;6.13;4.53;;;15.30;99.90;;;;;;5043784;28;20479;-55
2022/05/07 07:41:11;;;;;;;5.63;3.80;;;15.50;99.90;;;;;;5043373;28;20152;-55
2022/05/07 07:43:39;;;;;;;4.70;2.80;;;15.60;99.90;;;;;;5044091;28;20041;-56
2022/05/07 07:48:52;;;;;;;4.13;2.42;;;15.80;99.90;;;;;;5043217;28;20052;-58
2022/05/07 07:51:20;;;;;;;2.78;1.92;;;15.90;99.90;;;;;;5041873;28;20063;-58
2022/05/07 07:53:47;;;;;;;3.75;1.98;;;16.00;99.90;;;;;;5042340;28;21065;-58
2022/05/07 07:56:13;;;;;;;2.17;1.40;;;15.90;99.90;;;;;;5034781;28;20057;-57
2022/05/07 07:58:40;;;;;;;6.30;1.60;;;15.90;99.90;;;;;;5046092;28;20095;-57
2022/05/07 08:01:07;;;;;;;5.88;2.15;;;15.80;99.90;;;;;;5047331;28;20053;-57
2022/05/07 08:03:34;;;;;;;4.45;1.98;;;15.90;99.90;;;;;;5046307;28;20053;-62
2022/05/07 08:06:01;;;;;;;5.15;3.30;;;15.90;99.90;;;;;;5045239;28;20084;-57
2022/05/07 08:14:00;;;;;;;12.63;3.75;;;15.80;99.90;;;;;;5047133;28;20076;-57
2022/05/07 08:16:27;;;;;;;5.00;3.00;;;15.80;99.90;;;;;;5046205;28;20052;-57
2022/05/07 08:18:54;;;;;;;8.23;3.58;;;15.80;99.90;;;;;;5046550;28;20152;-57
2022/05/07 08:21:21;;;;;;;5.28;3.72;;;15.80;99.90;;;;;;5046521;28;20088;-58
2022/05/07 08:23:47;;;;;;;8.77;3.05;;;15.80;99.90;;;;;;5046644;28;20140;-57
2022/05/07 08:26:14;;;;;;;6.45;3.15;;;15.80;99.90;;;;;;5046408;28;20084;-56
2022/05/07 08:28:41;;;;;;;8.45;2.53;;;15.70;99.90;;;;;;5045168;28;20500;-57
2022/05/07 08:31:10;;;;;;;11.27;3.45;;;15.70;99.90;;;;;;5044244;28;20103;-58
2022/05/07 08:33:40;;;;;;;5.30;2.83;;;15.80;99.90;;;;;;5045002;28;20060;-58
2022/05/07 08:36:08;;;;;;;5.18;3.20;;;15.80;99.90;;;;;;5045629;28;20045;-59
2022/05/07 08:38:35;;;;;;;4.28;2.85;;;15.80;99.90;;;;;;5047437;28;20606;-58
2022/05/07 08:41:02;;;;;;;4.13;3.00;;;15.70;99.90;;;;;;5046080;28;20053;-58
2022/05/07 08:43:36;;;;;;;5.97;3.80;;;15.70;99.90;;;;;;5031809;28;20054;-59
2022/05/07 08:46:11;;;;;;;5.20;4.07;;;15.60;99.90;;;;;;5039242;28;20054;-59
2022/05/07 08:48:39;;;;;;;6.55;3.70;;;15.50;99.90;;;;;;5047632;28;20055;-58
2022/05/07 08:51:06;;;;;;;6.55;3.60;;;15.40;99.90;;;;;;5046645;28;20045;-57
2022/05/07 08:53:33;;;;;;;4.53;2.58;;;15.40;99.90;;;;;;5039585;28;20189;-57
2022/05/07 08:56:01;;;;;;;6.28;2.05;;;15.30;99.90;;;;;;5037481;28;20533;-59
2022/05/07 08:58:28;;;;;;;5.53;1.80;;;15.20;99.90;;;;;;5046220;28;20570;-57
2022/05/07 09:00:55;;;;;;;2.03;1.48;;;15.00;99.90;;;;;;5045673;28;20056;-59
2022/05/07 09:03:22;;;;;;;1.33;1.13;;;15.00;99.90;;;;;;5047817;28;20057;-58
2022/05/07 09:05:48;;;;;;;3.80;1.60;;;15.00;99.90;;;;;;5047638;28;20041;-60
2022/05/07 09:08:15;;;;;;;2.83;1.92;;;15.10;99.90;;;;;;5049231;28;20131;-58
2022/05/07 09:10:42;;;;;;;3.08;2.22;;;15.10;99.90;;;;;;5048994;28;20451;-58
2022/05/07 09:13:09;;;;;;;3.42;2.30;;;15.10;99.90;;;;;;5033593;28;20202;-58
2022/05/07 09:15:36;;;;;;;3.13;2.10;;;15.30;99.90;;;;;;5042624;28;20511;-59
2022/05/07 09:18:16;;;;;;;3.60;2.55;;;15.30;99.90;;;;;;5049170;28;20045;-57
2022/05/07 09:20:43;;;;;;;3.83;2.72;;;15.40;99.90;;;;;;5048223;28;20051;-58
2022/05/07 09:23:12;;;;;;;5.20;2.83;;;15.50;99.90;;;;;;5047888;28;20128;-58
2022/05/07 09:25:46;;;;;;;4.45;2.83;;;15.70;99.90;;;;;;5048605;28;20053;-58
2022/05/07 09:28:13;;;;;;;5.78;4.13;;;15.80;99.90;;;;;;5040296;28;20056;-58
2022/05/07 09:30:42;;;;;;;3.25;2.80;;;15.70;99.90;;;;;;5030795;28;20072;-59
2022/05/07 09:33:09;;;;;;;5.15;3.25;;;15.80;99.90;;;;;;5027140;28;20119;-57
2022/05/07 09:35:49;;;;;;;4.85;3.20;;;15.90;99.90;;;;;;5042791;28;20152;-57
2022/05/07 09:38:22;;;;;;;5.03;2.97;;;16.00;99.90;;;;;;5044316;28;20067;-57
2022/05/07 09:40:48;;;;;;;6.15;4.25;;;16.10;99.90;;;;;;5044393;28;20048;-58
2022/05/07 09:43:15;;;;;;;4.95;3.30;;;16.30;99.90;;;;;;5044187;28;20092;-56
2022/05/07 09:45:42;;;;;;;4.10;3.40;;;16.40;99.90;;;;;;5042781;28;20055;-58
2022/05/07 09:48:10;;;;;;;3.22;2.83;;;16.50;99.90;;;;;;5043653;28;20107;-56
2022/05/07 09:58:43;;;;;;;7.63;4.63;;;16.40;99.90;;;;;;5042988;28;20319;-57
2022/05/07 10:01:31;;;;;;;7.40;5.07;;;16.60;99.90;;;;;;5045667;28;20163;-60
2022/05/07 10:04:27;;;;;;;5.55;3.83;;;16.80;99.90;;;;;;5045108;28;20057;-58
2022/05/07 10:07:12;;;;;;;9.65;3.75;;;17.00;99.90;;;;;;5045251;28;20056;-56
2022/05/07 10:09:49;;;;;;;6.68;4.07;;;17.30;99.90;;;;;;5041738;28;20096;-55
2022/05/07 10:12:20;;;;;;;5.40;4.05;;;17.60;99.90;;;;;;5043466;28;20089;-57
2022/05/07 10:14:47;;;;;;;6.55;3.65;;;17.80;99.90;;;;;;5041417;28;20056;-59
2022/05/07 10:17:14;;;;;;;4.40;3.83;;;17.90;99.90;;;;;;5044683;28;20052;-58
2022/05/07 10:19:45;;;;;;;8.45;3.75;;;18.20;99.90;;;;;;5042102;28;20051;-58
2022/05/07 10:22:21;;;;;;;6.03;4.40;;;18.00;99.90;;;;;;5045130;28;20739;-58
2022/05/07 10:24:49;;;;;;;5.78;4.28;;;17.90;99.90;;;;;;5044754;28;20097;-57
2022/05/07 10:27:25;;;;;;;4.65;3.97;;;17.70;99.90;;;;;;5043712;28;20156;-57
2022/05/07 10:29:51;;;;;;;11.00;3.88;;;17.70;99.90;;;;;;5043162;28;20071;-61
2022/05/07 10:32:19;;;;;;;6.47;4.30;;;17.60;99.90;;;;;;5042917;28;20130;-60
2022/05/07 10:34:53;;;;;;;5.80;4.13;;;17.60;99.90;;;;;;5043111;28;20160;-58
2022/05/07 10:37:19;;;;;;;6.45;2.88;;;17.60;99.90;;;;;;5043108;28;20084;-62
2022/05/07 10:39:53;;;;;;;4.32;3.03;;;17.80;99.90;;;;;;5044329;28;20185;-58
2022/05/07 10:42:21;;;;;;;3.45;2.83;;;17.80;99.90;;;;;;5042826;28;20552;-60
2022/05/07 10:44:49;;;;;;;7.70;3.05;;;17.70;99.90;;;;;;5044157;28;20067;-57
2022/05/07 10:47:19;;;;;;;5.75;2.90;;;17.70;99.90;;;;;;5044636;28;20106;-57
2022/05/07 10:49:52;;;;;;;3.33;2.15;;;17.50;99.90;;;;;;5043656;28;20070;-56
2022/05/07 10:52:32;;;;;;;8.60;3.08;;;17.50;99.90;;;;;;5044533;28;20049;-58
2022/05/07 10:55:17;;;;;;;4.13;3.20;;;17.50;99.90;;;;;;5044161;28;20064;-60
2022/05/07 10:57:45;;;;;;;4.75;3.20;;;17.60;99.90;;;;;;5043914;28;20138;-56
2022/05/07 11:00:20;;;;;;;4.68;4.28;;;17.60;99.90;;;;;;5043944;28;20053;-57
2022/05/07 11:02:48;;;;;;;6.70;3.20;;;17.60;99.90;;;;;;5044207;28;20596;-61
2022/05/07 11:05:16;;;;;;;5.40;3.40;;;17.70;99.90;;;;;;5043856;28;20045;-58
2022/05/07 11:07:43;;;;;;;12.40;4.35;;;17.80;99.90;;;;;;5042739;28;20095;-60
2022/05/07 11:10:10;;;;;;;4.00;3.60;;;17.90;99.90;;;;;;5044091;28;20094;-58
2022/05/07 11:12:39;;;;;;;11.45;3.92;;;18.00;99.90;;;;;;5044254;28;20559;-57
2022/05/07 11:15:09;;;;;;;4.05;3.63;;;18.20;99.90;;;;;;5043930;28;20049;-57
2022/05/07 11:17:36;;;;;;;11.05;4.75;;;18.40;99.90;;;;;;5044098;28;20480;-58
2022/05/07 11:20:10;;;;;;;7.40;4.97;;;18.60;99.90;;;;;;5042898;28;20106;-57
2022/05/07 11:22:39;;;;;;;12.93;6.60;;;18.70;99.90;;;;;;5044122;28;20491;-57
2022/05/07 11:25:07;;;;;;;11.93;6.30;;;18.70;99.90;;;;;;5043956;28;20048;-60
2022/05/07 11:27:34;;;;;;;10.00;6.35;;;18.80;99.90;;;;;;5044167;28;20048;-59
2022/05/07 11:30:04;;;;;;;6.40;5.63;;;18.90;99.90;;;;;;5046889;28;20053;-59
2022/05/07 11:32:42;;;;;;;14.05;7.20;;;19.10;99.90;;;;;;5047525;28;20060;-58
2022/05/07 11:35:09;;;;;;;7.65;6.85;;;19.20;99.90;;;;;;5047393;28;20132;-57
2022/05/07 11:37:41;;;;;;;12.00;6.18;;;19.30;99.90;;;;;;5047742;28;20597;-58
2022/05/07 11:40:09;;;;;;;8.88;6.25;;;19.20;99.90;;;;;;5047660;28;20059;-57
2022/05/07 11:42:38;;;;;;;7.88;6.45;;;19.00;99.90;;;;;;5046395;28;20052;-59
2022/05/07 11:45:31;;;;;;;7.10;6.10;;;18.80;99.90;;;;;;5046536;28;20049;-59
2022/05/07 11:48:05;;;;;;;9.35;6.00;;;18.50;99.90;;;;;;5044527;28;20083;-57
2022/05/07 11:50:33;;;;;;;10.10;5.43;;;18.30;99.90;;;;;;5045180;28;20160;-57
2022/05/07 11:53:10;;;;;;;9.40;6.53;;;18.20;99.90;;;;;;5046893;28;20114;-59
2022/05/07 11:55:37;;;;;;;11.10;6.18;;;18.00;99.90;;;;;;5046145;28;20140;-58
2022/05/07 11:58:18;;;;;;;6.97;6.07;;;17.90;99.90;;;;;;5047028;28;20427;-58
2022/05/07 12:00:45;;;;;;;10.90;6.70;;;17.80;99.90;;;;;;5047194;28;20057;-59
2022/05/07 12:03:26;;;;;;;7.95;6.72;;;17.70;99.90;;;;;;5046631;28;20049;-58
2022/05/07 12:05:54;;;;;;;7.03;5.22;;;17.80;99.90;;;;;;5045160;28;20291;-58
2022/05/07 12:08:21;;;;;;;17.08;6.78;;;17.80;99.90;;;;;;5045255;28;20128;-60
2022/05/07 12:10:50;;;;;;;11.40;6.15;;;17.80;99.90;;;;;;5045806;28;20133;-59
2022/05/07 12:13:17;;;;;;;5.55;4.50;;;17.90;99.90;;;;;;5045712;28;20105;-58
2022/05/07 12:18:34;;;;;;;9.52;4.18;;;18.10;99.90;;;;;;5046483;28;20188;-58
2022/05/07 12:21:01;;;;;;;8.00;3.78;;;18.10;99.90;;;;;;5042373;28;20130;-57
2022/05/07 12:31:31;;;;;;;5.30;4.00;;;18.40;99.90;;;;;;5033075;28;20408;-57
2022/05/07 12:33:58;;;;;;;5.07;3.83;;;18.40;99.90;;;;;;5043940;28;20041;-56
2022/05/07 12:36:28;;;;;;;5.32;3.17;;;18.30;99.90;;;;;;5041768;28;20732;-60
2022/05/07 12:38:59;;;;;;;9.45;3.58;;;18.10;99.90;;;;;;5045284;28;20130;-58
2022/05/07 12:41:29;;;;;;;6.68;3.05;;;18.10;99.90;;;;;;5041160;28;20053;-58
2022/05/07 12:43:57;;;;;;;5.82;3.03;;;18.10;99.90;;;;;;5045408;28;20045;-59
2022/05/07 12:46:24;;;;;;;4.47;2.83;;;18.20;99.90;;;;;;5046504;28;20135;-56
2022/05/07 12:48:52;;;;;;;3.60;2.53;;;18.20;99.90;;;;;;5044172;28;20045;-59
2022/05/07 12:51:19;;;;;;;3.95;3.28;;;18.30;99.90;;;;;;5046056;28;20076;-58
2022/05/07 12:53:46;;;;;;;8.15;3.53;;;18.30;99.90;;;;;;5045983;28;20152;-60
2022/05/07 12:56:12;;;;;;;7.63;4.15;;;18.30;99.90;;;;;;5044282;28;20083;-55
2022/05/07 12:58:39;;;;;;;5.68;2.80;;;18.40;99.90;;;;;;5045896;28;20053;-58
2022/05/07 13:01:06;;;;;;;5.78;4.20;;;18.40;99.90;;;;;;5046034;28;20597;-58
2022/05/07 13:03:33;;;;;;;4.68;3.88;;;18.50;99.90;;;;;;5045492;28;20084;-58
2022/05/07 13:05:59;;;;;;;5.25;3.40;;;18.60;99.90;;;;;;5045545;28;20074;-60
2022/05/07 13:08:27;;;;;;;3.88;2.88;;;18.70;99.90;;;;;;5045297;28;20433;-57
2022/05/07 13:10:53;;;;;;;4.05;2.83;;;19.00;99.90;;;;;;5045589;28;20108;-59
2022/05/07 13:13:23;;;;;;;6.45;3.35;;;19.10;99.90;;;;;;5045820;28;20611;-56
2022/05/07 13:15:50;;;;;;;3.85;2.92;;;19.40;99.90;;;;;;5041881;28;20142;-58
2022/05/07 13:18:17;;;;;;;4.03;2.53;;;19.50;99.90;;;;;;5027068;28;20080;-62
2022/05/07 13:20:51;;;;;;;5.32;3.05;;;19.40;99.90;;;;;;5034186;28;20048;-58
2022/05/07 13:23:18;;;;;;;6.97;4.15;;;19.40;99.90;;;;;;5045784;28;20049;-57
2022/05/07 13:25:44;;;;;;;5.32;3.50;;;19.20;99.90;;;;;;5044179;28;20115;-58
2022/05/07 13:28:11;;;;;;;5.63;3.95;;;19.10;99.90;;;;;;5045693;28;20136;-59